createdAt,value
2022-10-23T00:00:56.163Z,101140.81
2022-10-23T00:03:28.679Z,101146.97
2022-10-23T00:06:05.018Z,101139.91
2022-10-23T00:08:38.552Z,101133.66
2022-10-23T00:11:15.863Z,101129.19
2022-10-23T00:13:50.658Z,101128.34
2022-10-23T00:16:23.236Z,101132.75
2022-10-23T00:18:56.471Z,101128.28
2022-10-23T00:21:29.368Z,101131.06
2022-10-23T00:24:02.030Z,101139.91
2022-10-23T00:26:34.991Z,101134.59
2022-10-23T00:29:09.589Z,101132.88
2022-10-23T00:31:42.254Z,101128.47
2022-10-23T00:34:14.754Z,101125.88
2022-10-23T00:36:47.265Z,101122.31
2022-10-23T00:39:19.773Z,101126.66
2022-10-23T00:41:52.855Z,101124.00
2022-10-23T00:44:25.285Z,101124.88
2022-10-23T00:46:59.866Z,101122.25
2022-10-23T00:49:34.408Z,101123.28
2022-10-23T00:52:11.709Z,101122.38
2022-10-23T00:54:44.525Z,101116.03
2022-10-23T00:57:17.223Z,101112.53
2022-10-23T00:59:49.868Z,101122.25
2022-10-23T01:02:22.660Z,101116.94
2022-10-23T01:04:55.344Z,101118.75
2022-10-23T01:07:51.898Z,101114.34
2022-10-23T01:10:44.512Z,101104.69
2022-10-23T01:13:28.414Z,101114.28
2022-10-23T01:16:21.309Z,101111.69
2022-10-23T01:19:09.075Z,101105.50
2022-10-23T01:22:02.504Z,101115.09
2022-10-23T01:24:54.221Z,101108.06
2022-10-23T01:27:42.279Z,101101.97
2022-10-23T01:30:17.657Z,101101.16
2022-10-23T01:33:10.628Z,101099.56
2022-10-23T01:36:03.216Z,101088.97
2022-10-23T01:41:58.677Z,101088.97
2022-10-23T01:44:59.720Z,101079.25
2022-10-23T01:47:35.890Z,101073.16
2022-10-23T01:50:14.319Z,101072.25
2022-10-23T01:52:47.090Z,101065.22
2022-10-23T01:55:22.705Z,101063.47
2022-10-23T01:57:57.028Z,101061.72
2022-10-23T02:00:30.825Z,101068.75
2022-10-23T02:03:04.560Z,101070.59
2022-10-23T02:05:39.238Z,101077.63
2022-10-23T02:08:12.727Z,101068.88
2022-10-23T02:10:55.835Z,101068.81
2022-10-23T02:13:49.867Z,101071.47
2022-10-23T02:16:41.292Z,101062.69
2022-10-23T02:19:31.114Z,101060.06
2022-10-23T02:22:12.549Z,101055.66
2022-10-23T02:25:01.637Z,101059.16
2022-10-23T02:27:42.450Z,101053.88
2022-10-23T02:30:18.758Z,101056.47
2022-10-23T02:32:56.221Z,101047.53
2022-10-23T02:35:28.841Z,101040.44
2022-10-23T02:38:01.987Z,101040.28
2022-10-23T02:40:44.160Z,101027.03
2022-10-23T02:43:48.440Z,101022.47
2022-10-23T02:46:44.095Z,101012.63
2022-10-23T02:50:01.527Z,100997.53
2022-10-23T02:52:57.698Z,100994.75
2022-10-23T02:55:54.410Z,100991.31
2022-10-23T02:58:49.331Z,100977.03
2022-10-23T03:01:33.751Z,100968.22
2022-10-23T03:04:11.114Z,100972.47
2022-10-23T03:06:44.326Z,100968.91
2022-10-23T03:09:17.647Z,100961.78
2022-10-23T03:11:50.137Z,100967.09
2022-10-23T03:14:22.734Z,100964.38
2022-10-23T03:16:55.229Z,100961.78
2022-10-23T03:19:27.737Z,100960.84
2022-10-23T03:22:00.319Z,100948.41
2022-10-23T03:24:32.819Z,100951.94
2022-10-23T03:27:05.360Z,100953.69
2022-10-23T03:29:38.241Z,100954.72
2022-10-23T03:32:10.813Z,100944.97
2022-10-23T03:34:43.611Z,100945.78
2022-10-23T03:37:16.157Z,100946.72
2022-10-23T03:39:48.838Z,100939.50
2022-10-23T03:42:21.387Z,100932.38
2022-10-23T03:44:53.951Z,100927.91
2022-10-23T03:47:26.550Z,100928.75
2022-10-23T03:49:59.072Z,100929.66
2022-10-23T03:52:31.564Z,100926.06
2022-10-23T03:55:05.321Z,100924.19
2022-10-23T03:57:38.127Z,100923.41
2022-10-23T04:00:11.570Z,100916.28
2022-10-23T04:02:44.602Z,100917.94
2022-10-23T04:05:17.537Z,100904.50
2022-10-23T04:07:50.046Z,100897.41
2022-10-23T04:10:22.670Z,100886.72
2022-10-23T04:12:55.158Z,100890.28
2022-10-23T04:15:27.870Z,100888.66
2022-10-23T04:18:00.498Z,100886.81
2022-10-23T04:20:33.061Z,100885.06
2022-10-23T04:23:05.544Z,100891.22
2022-10-23T04:25:38.081Z,100895.63
2022-10-23T04:28:10.932Z,100898.34
2022-10-23T04:30:43.532Z,100899.19
2022-10-23T04:33:16.192Z,100896.59
2022-10-23T04:35:48.843Z,100891.22
2022-10-23T04:38:21.472Z,100893.03
2022-10-23T04:40:53.946Z,100890.31
2022-10-23T04:43:26.521Z,100888.66
2022-10-23T04:45:59.305Z,100886.78
2022-10-23T04:48:32.549Z,100893.78
2022-10-23T04:51:07.253Z,100887.56
2022-10-23T04:53:39.754Z,100889.31
2022-10-23T04:56:15.291Z,100878.69
2022-10-23T04:58:47.908Z,100868.13
2022-10-23T05:01:20.694Z,100877.81
2022-10-23T05:03:54.094Z,100871.59
2022-10-23T05:06:26.933Z,100880.56
2022-10-23T05:08:59.410Z,100871.59
2022-10-23T05:11:31.986Z,100867.09
2022-10-23T05:14:04.571Z,100868.06
2022-10-23T05:16:57.520Z,100863.44
2022-10-23T05:19:40.645Z,100861.72
2022-10-23T05:22:15.027Z,100856.41
2022-10-23T05:24:50.455Z,100856.28
2022-10-23T05:27:24.225Z,100859.84
2022-10-23T05:29:56.758Z,100857.97
2022-10-23T05:32:33.500Z,100853.56
2022-10-23T05:35:17.615Z,100854.50
2022-10-23T05:37:53.595Z,100852.72
2022-10-23T05:40:26.633Z,100846.53
2022-10-23T05:42:59.255Z,100844.66
2022-10-23T05:45:31.723Z,100841.19
2022-10-23T05:48:10.896Z,100842.91
2022-10-23T05:50:43.754Z,100846.47
2022-10-23T05:53:16.429Z,100843.84
2022-10-23T05:55:48.958Z,100844.75
2022-10-23T05:58:23.434Z,100832.31
2022-10-23T06:00:56.083Z,100839.47
2022-10-23T06:03:28.687Z,100828.75
2022-10-23T06:06:01.704Z,100825.16
2022-10-23T06:08:35.797Z,100827.72
2022-10-23T06:11:11.516Z,100822.31
2022-10-23T06:13:46.318Z,100822.31
2022-10-23T06:16:27.726Z,100820.59
2022-10-23T06:19:00.971Z,100822.25
2022-10-23T06:21:37.433Z,100823.06
2022-10-23T06:24:11.271Z,100810.75
2022-10-23T06:26:44.638Z,100810.66
2022-10-23T06:29:17.314Z,100818.53
2022-10-23T06:31:50.017Z,100808.72
2022-10-23T06:34:22.793Z,100805.03
2022-10-23T06:36:55.551Z,100797.81
2022-10-23T06:39:31.165Z,100793.44
2022-10-23T06:42:05.061Z,100795.25
2022-10-23T06:44:37.686Z,100787.88
2022-10-23T06:47:14.330Z,100779.81
2022-10-23T06:49:47.017Z,100782.28
2022-10-23T06:52:34.897Z,100777.78
2022-10-23T06:55:12.535Z,100777.59
2022-10-23T06:57:45.597Z,100775.84
2022-10-23T07:00:18.539Z,100775.63
2022-10-23T07:02:53.100Z,100773.69
2022-10-23T07:05:25.789Z,100777.28
2022-10-23T07:07:58.314Z,100785.97
2022-10-23T07:10:30.831Z,100782.41
2022-10-23T07:13:03.359Z,100782.00
2022-10-23T07:15:36.774Z,100772.19
2022-10-23T07:18:14.395Z,100772.94
2022-10-23T07:20:49.350Z,100768.34
2022-10-23T07:23:21.966Z,100765.44
2022-10-23T07:25:54.480Z,100760.94
2022-10-23T07:28:26.960Z,100751.00
2022-10-23T07:31:01.075Z,100755.53
2022-10-23T07:33:34.374Z,100755.16
2022-10-23T07:36:09.296Z,100749.75
2022-10-23T07:38:41.903Z,100749.59
2022-10-23T07:41:15.371Z,100749.31
2022-10-23T07:43:47.943Z,100746.38
2022-10-23T07:46:20.531Z,100750.47
2022-10-23T07:48:53.018Z,100741.50
2022-10-23T07:51:25.641Z,100742.38
2022-10-23T07:53:58.258Z,100745.41
2022-10-23T07:56:31.475Z,100744.34
2022-10-23T07:59:04.810Z,100745.78
2022-10-23T08:01:39.163Z,100738.31
2022-10-23T08:04:12.076Z,100739.13
2022-10-23T08:06:44.995Z,100740.03
2022-10-23T08:09:17.679Z,100739.72
2022-10-23T08:11:50.215Z,100741.09
2022-10-23T08:14:23.008Z,100735.59
2022-10-23T08:16:55.839Z,100741.28
2022-10-23T08:19:28.337Z,100740.38
2022-10-23T08:22:00.797Z,100743.75
2022-10-23T08:24:33.278Z,100737.25
2022-10-23T08:27:05.955Z,100734.13
2022-10-23T08:29:38.437Z,100728.69
2022-10-23T08:32:10.916Z,100730.00
2022-10-23T08:34:43.459Z,100728.38
2022-10-23T08:37:15.965Z,100719.66
2022-10-23T08:39:51.354Z,100718.47
2022-10-23T08:42:27.714Z,100712.97
2022-10-23T08:45:28.608Z,100711.31
2022-10-23T08:48:23.616Z,100704.75
2022-10-23T08:51:08.557Z,100703.13
2022-10-23T08:53:59.627Z,100710.84
2022-10-23T08:56:41.290Z,100697.50
2022-10-23T08:59:34.141Z,100705.09
2022-10-23T09:02:24.764Z,100699.63
2022-10-23T09:04:58.683Z,100682.66
2022-10-23T09:07:42.940Z,100687.50
2022-10-23T09:10:40.366Z,100682.16
2022-10-23T09:13:52.289Z,100676.41
2022-10-23T09:16:53.463Z,100670.81
2022-10-23T09:19:28.073Z,100675.06
2022-10-23T09:22:01.276Z,100671.06
2022-10-23T09:24:33.887Z,100675.72
2022-10-23T09:27:06.392Z,100655.63
2022-10-23T09:29:50.177Z,100655.63
2022-10-23T09:32:38.067Z,100650.78
2022-10-23T09:35:25.947Z,100642.56
2022-10-23T09:37:58.535Z,100623.78
2022-10-23T09:40:43.490Z,100620.53
2022-10-23T09:43:21.738Z,100623.06
2022-10-23T09:46:06.083Z,100626.41
2022-10-23T09:48:42.225Z,100629.50
2022-10-23T09:51:21.887Z,100625.66
2022-10-23T09:53:59.398Z,100618.38
2022-10-23T09:56:39.975Z,100619.94
2022-10-23T09:59:12.671Z,100622.22
2022-10-23T10:02:01.564Z,100607.75
2022-10-23T10:04:41.617Z,100596.97
2022-10-23T10:07:24.292Z,100598.81
2022-10-23T10:09:58.086Z,100596.25
2022-10-23T10:12:59.334Z,100571.63
2022-10-23T10:15:48.261Z,100572.19
2022-10-23T10:18:45.742Z,100570.84
2022-10-23T10:21:31.956Z,100561.81
2022-10-23T10:24:21.290Z,100556.16
2022-10-23T10:27:11.898Z,100559.34
2022-10-23T10:29:53.654Z,100554.06
2022-10-23T10:32:40.185Z,100566.66
2022-10-23T10:35:34.872Z,100577.44
2022-10-23T10:38:16.750Z,100557.63
2022-10-23T10:41:00.437Z,100555.44
2022-10-23T10:44:03.188Z,100551.03
2022-10-23T10:46:58.219Z,100551.69
2022-10-23T10:49:42.958Z,100547.72
2022-10-23T10:52:37.724Z,100528.38
2022-10-23T10:55:23.159Z,100537.94
2022-10-23T10:58:15.719Z,100517.72
2022-10-23T11:00:55.769Z,100520.63
2022-10-23T11:03:46.155Z,100545.44
2022-10-23T11:06:24.663Z,100535.81
2022-10-23T11:09:20.341Z,100524.38
2022-10-23T11:11:53.036Z,100525.16
2022-10-23T11:14:30.807Z,100527.28
2022-10-23T11:17:18.473Z,100511.31
2022-10-23T11:20:34.528Z,100526.22
2022-10-23T11:23:48.189Z,100507.84
2022-10-23T11:27:05.722Z,100504.25
2022-10-23T11:30:18.420Z,100494.66
2022-10-23T11:33:25.554Z,100481.34
2022-10-23T11:36:44.930Z,100467.81
2022-10-23T11:39:36.762Z,100470.59
2022-10-23T11:42:09.286Z,100460.91
2022-10-23T11:44:50.786Z,100468.97
2022-10-23T11:47:40.411Z,100449.91
2022-10-23T11:50:23.390Z,100440.72
2022-10-23T11:53:15.947Z,100445.00
2022-10-23T11:56:19.583Z,100443.16
2022-10-23T11:59:16.193Z,100448.53
2022-10-23T12:01:51.440Z,100455.47
2022-10-23T12:04:28.358Z,100444.91
2022-10-23T12:07:13.420Z,100451.03
2022-10-23T12:10:03.225Z,100447.38
2022-10-23T12:12:42.501Z,100427.75
2022-10-23T12:15:22.196Z,100426.47
2022-10-23T12:18:17.744Z,100428.09
2022-10-23T12:21:00.175Z,100424.38
2022-10-23T12:24:00.646Z,100424.44
2022-10-23T12:26:55.002Z,100413.81
2022-10-23T12:30:13.426Z,100403.56
2022-10-23T12:33:12.503Z,100394.16
2022-10-23T12:36:12.496Z,100401.22
2022-10-23T12:38:47.916Z,100378.28
2022-10-23T12:41:26.638Z,100392.94
2022-10-23T12:44:04.081Z,100376.34
2022-10-23T12:46:49.789Z,100381.13
2022-10-23T12:49:28.503Z,100382.59
2022-10-23T12:52:19.315Z,100372.63
2022-10-23T12:54:52.200Z,100377.63
2022-10-23T12:57:26.960Z,100369.84
2022-10-23T13:00:10.242Z,100354.34
2022-10-23T13:02:42.809Z,100350.16
2022-10-23T13:05:19.749Z,100353.06
2022-10-23T13:07:52.976Z,100336.50
2022-10-23T13:10:26.282Z,100336.94
2022-10-23T13:13:04.521Z,100321.97
2022-10-23T13:15:45.466Z,100323.34
2022-10-23T13:18:18.831Z,100325.06
2022-10-23T13:20:51.225Z,100324.56
2022-10-23T13:23:34.625Z,100316.28
2022-10-23T13:26:45.122Z,100307.31
2022-10-23T13:32:21.906Z,100300.19
2022-10-23T13:35:03.941Z,100283.75
2022-10-23T13:40:26.348Z,100279.91
2022-10-23T13:42:58.923Z,100268.72
2022-10-23T13:45:35.602Z,100274.31
2022-10-23T13:48:15.028Z,100281.41
2022-10-23T13:50:47.545Z,100281.50
2022-10-23T13:53:20.157Z,100282.59
2022-10-23T13:55:58.673Z,100285.06
2022-10-23T13:58:31.577Z,100285.47
2022-10-23T14:01:05.238Z,100290.44
2022-10-23T14:03:37.820Z,100282.47
2022-10-23T14:06:10.277Z,100279.22
2022-10-23T14:08:42.867Z,100276.25
2022-10-23T14:11:19.021Z,100276.34
2022-10-23T14:13:52.679Z,100262.25
2022-10-23T14:16:25.556Z,100267.31
2022-10-23T14:18:58.141Z,100272.03
2022-10-23T14:21:30.586Z,100267.63
2022-10-23T14:24:03.165Z,100267.00
2022-10-23T14:26:35.687Z,100264.81
2022-10-23T14:29:10.284Z,100263.31
2022-10-23T14:31:46.500Z,100269.34
2022-10-23T14:34:19.065Z,100269.88
2022-10-23T14:37:07.448Z,100266.75
2022-10-23T14:39:40.928Z,100271.03
2022-10-23T14:42:14.003Z,100278.59
2022-10-23T14:44:46.493Z,100270.19
2022-10-23T14:47:20.359Z,100249.94
2022-10-23T14:49:53.440Z,100259.75
2022-10-23T14:52:26.020Z,100263.41
2022-10-23T14:54:58.598Z,100260.06
2022-10-23T14:57:31.094Z,100253.94
2022-10-23T15:00:06.022Z,100248.16
2022-10-23T15:02:38.569Z,100235.72
2022-10-23T15:05:11.122Z,100234.38
2022-10-23T15:07:43.621Z,100232.06
2022-10-23T15:12:53.717Z,100235.50
2022-10-23T15:15:26.209Z,100223.59
2022-10-23T15:17:58.671Z,100223.69
2022-10-23T15:20:31.410Z,100222.50
2022-10-23T15:23:03.960Z,100220.88
2022-10-23T15:25:36.546Z,100215.38
2022-10-23T15:28:09.029Z,100227.47
2022-10-23T15:30:43.332Z,100216.81
2022-10-23T15:33:19.178Z,100222.97
2022-10-23T15:35:53.976Z,100212.16
2022-10-23T15:38:26.550Z,100216.56
2022-10-23T15:41:14.690Z,100209.41
2022-10-23T15:43:47.204Z,100202.91
2022-10-23T15:46:19.692Z,100204.81
2022-10-23T15:48:52.967Z,100204.25
2022-10-23T15:51:25.614Z,100195.72
2022-10-23T15:53:59.195Z,100175.75
2022-10-23T15:56:31.826Z,100158.91
2022-10-23T15:59:04.373Z,100148.88
2022-10-23T16:01:37.017Z,100140.06
2022-10-23T16:04:09.971Z,100118.94
2022-10-23T16:06:43.954Z,100116.34
2022-10-23T16:09:16.975Z,100131.47
2022-10-23T16:11:49.457Z,100137.69
2022-10-23T16:14:21.994Z,100132.78
2022-10-23T16:16:54.840Z,100125.72
2022-10-23T16:19:27.349Z,100120.34
2022-10-23T16:21:59.990Z,100129.28
2022-10-23T16:24:33.315Z,100137.63
2022-10-23T16:27:06.154Z,100147.75
2022-10-23T16:29:38.674Z,100154.81
2022-10-23T16:32:11.187Z,100157.88
2022-10-23T16:34:43.645Z,100146.03
2022-10-23T16:37:16.171Z,100159.88
2022-10-23T16:39:48.622Z,100170.72
2022-10-23T16:42:21.097Z,100179.28
2022-10-23T16:44:53.651Z,100165.91
2022-10-23T16:47:26.221Z,100142.75
2022-10-23T16:50:01.599Z,100143.34
2022-10-23T16:52:34.893Z,100143.16
2022-10-23T16:55:08.345Z,100133.31
2022-10-23T16:57:41.152Z,100123.56
2022-10-23T17:00:13.916Z,100129.97
2022-10-23T17:02:46.701Z,100136.47
2022-10-23T17:05:19.308Z,100137.41
2022-10-23T17:07:51.769Z,100127.25
2022-10-23T17:10:24.234Z,100132.19
2022-10-23T17:12:56.811Z,100124.50
2022-10-23T17:15:29.312Z,100131.47
2022-10-23T17:18:01.836Z,100131.66
2022-10-23T17:20:34.303Z,100145.06
2022-10-23T17:23:06.764Z,100134.53
2022-10-23T17:25:40.648Z,100135.22
2022-10-23T17:28:13.150Z,100140.09
2022-10-23T17:30:45.767Z,100141.22
2022-10-23T17:33:18.683Z,100143.44
2022-10-23T17:35:51.268Z,100144.03
2022-10-23T17:38:23.732Z,100152.13
2022-10-23T17:40:56.229Z,100149.09
2022-10-23T17:43:28.703Z,100143.50
2022-10-23T17:46:06.354Z,100144.69
2022-10-23T17:48:47.141Z,100154.75
2022-10-23T17:51:32.319Z,100162.03
2022-10-23T17:54:11.704Z,100154.06
2022-10-23T17:56:44.288Z,100139.63
2022-10-23T17:59:21.040Z,100126.34
2022-10-23T18:01:53.681Z,100140.44
2022-10-23T18:04:27.327Z,100150.31
2022-10-23T18:06:59.869Z,100153.75
2022-10-23T18:09:32.339Z,100146.84
2022-10-23T18:12:04.854Z,100136.91
2022-10-23T18:14:37.843Z,100135.75
2022-10-23T18:17:10.498Z,100143.69
2022-10-23T18:19:43.131Z,100146.13
2022-10-23T18:22:15.723Z,100140.94
2022-10-23T18:24:48.398Z,100137.16
2022-10-23T18:27:20.848Z,100132.84
2022-10-23T18:29:53.999Z,100136.53
2022-10-23T18:32:27.796Z,100129.22
2022-10-23T18:35:00.254Z,100123.00
2022-10-23T18:37:34.713Z,100122.81
2022-10-23T18:40:12.497Z,100112.78
2022-10-23T18:42:45.351Z,100112.78
2022-10-23T18:45:18.217Z,100115.22
2022-10-23T18:47:51.258Z,100131.84
2022-10-23T18:50:23.750Z,100133.28
2022-10-23T18:52:57.188Z,100121.66
2022-10-23T18:55:29.750Z,100128.72
2022-10-23T18:58:02.391Z,100147.16
2022-10-23T19:00:34.896Z,100147.66
2022-10-23T19:03:08.315Z,100159.28
2022-10-23T19:05:46.250Z,100187.25
2022-10-23T19:08:18.923Z,100233.50
2022-10-23T19:10:53.195Z,100280.53
2022-10-23T19:13:26.372Z,100294.47
2022-10-23T19:15:59.430Z,100265.00
2022-10-23T19:18:37.509Z,100262.31
2022-10-23T19:21:10.735Z,100235.31
2022-10-23T19:23:44.032Z,100220.25
2022-10-23T19:26:17.404Z,100192.28
2022-10-23T19:31:26.992Z,100230.75
2022-10-23T19:33:59.770Z,100228.28
2022-10-23T19:36:32.407Z,100241.03
2022-10-23T19:39:05.234Z,100219.19
2022-10-23T19:41:37.859Z,100201.22
2022-10-23T19:44:10.654Z,100200.53
2022-10-23T19:46:43.976Z,100217.47
2022-10-23T19:49:17.828Z,100206.66
2022-10-23T19:51:51.468Z,100193.25
2022-10-23T19:54:24.668Z,100196.44
2022-10-23T19:56:57.329Z,100197.38
2022-10-23T19:59:29.891Z,100223.97
2022-10-23T20:02:03.338Z,100234.69
2022-10-23T20:04:36.010Z,100245.19
2022-10-23T20:07:08.607Z,100251.63
2022-10-23T20:09:41.250Z,100237.41
2022-10-23T20:12:13.788Z,100238.22
2022-10-23T20:14:46.399Z,100229.25
2022-10-23T20:17:18.999Z,100235.84
2022-10-23T20:19:52.758Z,100228.66
2022-10-23T20:22:25.296Z,100228.41
2022-10-23T20:24:57.825Z,100232.88
2022-10-23T20:27:30.440Z,100224.09
2022-10-23T20:30:03.838Z,100227.44
2022-10-23T20:32:36.382Z,100231.91
2022-10-23T20:35:09.722Z,100235.19
2022-10-23T20:37:42.525Z,100241.22
2022-10-23T20:40:15.530Z,100244.22
2022-10-23T20:42:48.221Z,100240.63
2022-10-23T20:45:20.791Z,100238.09
2022-10-23T20:47:53.341Z,100243.63
2022-10-23T20:50:25.865Z,100242.56
2022-10-23T20:52:58.499Z,100238.09
2022-10-23T20:55:31.276Z,100240.78
2022-10-23T20:58:03.860Z,100233.19
2022-10-23T21:00:36.371Z,100239.41
2022-10-23T21:03:08.932Z,100229.81
2022-10-23T21:05:41.562Z,100226.28
2022-10-23T21:08:14.082Z,100222.97
2022-10-23T21:10:47.630Z,100223.69
2022-10-23T21:13:20.280Z,100221.25
2022-10-23T21:15:53.254Z,100223.28
2022-10-23T21:18:45.470Z,100234.09
2022-10-23T21:21:20.855Z,100225.31
2022-10-23T21:23:56.883Z,100221.91
2022-10-23T21:26:30.537Z,100220.41
2022-10-23T21:29:18.068Z,100216.91
2022-10-23T21:31:58.066Z,100215.97
2022-10-23T21:34:31.044Z,100217.84
2022-10-23T21:37:12.901Z,100217.84
2022-10-23T21:39:46.370Z,100213.38
2022-10-23T21:42:19.285Z,100204.56
2022-10-23T21:44:51.954Z,100196.22
2022-10-23T21:47:24.891Z,100198.91
2022-10-23T21:49:57.462Z,100209.09
2022-10-23T21:52:30.403Z,100201.19
2022-10-23T21:55:03.086Z,100199.84
2022-10-23T21:57:35.822Z,100200.78
2022-10-23T22:00:09.266Z,100200.63
2022-10-23T22:02:42.368Z,100202.13
2022-10-23T22:05:15.282Z,100195.84
2022-10-23T22:07:48.529Z,100200.09
2022-10-23T22:10:21.006Z,100203.56
2022-10-23T22:12:53.519Z,100202.41
2022-10-23T22:15:26.076Z,100208.09
2022-10-23T22:17:59.824Z,100205.34
2022-10-23T22:20:32.367Z,100199.16
2022-10-23T22:23:04.943Z,100200.09
2022-10-23T22:25:38.749Z,100202.78
2022-10-23T22:28:11.351Z,100204.56
2022-10-23T22:30:43.871Z,100206.00
2022-10-23T22:33:16.318Z,100195.44
2022-10-23T22:35:48.871Z,100189.31
2022-10-23T22:38:21.382Z,100177.38
2022-10-23T22:40:56.345Z,100188.59
2022-10-23T22:43:29.477Z,100174.94
2022-10-23T22:46:10.464Z,100173.16
2022-10-23T22:48:44.813Z,100180.59
2022-10-23T22:51:22.254Z,100180.75
2022-10-23T22:53:57.961Z,100170.31
2022-10-23T22:56:34.550Z,100171.34
2022-10-23T22:59:07.273Z,100167.03
2022-10-23T23:01:44.664Z,100164.22
2022-10-23T23:07:13.728Z,100167.34
2022-10-23T23:09:49.196Z,100162.41
2022-10-23T23:12:21.712Z,100165.16
2022-10-23T23:14:58.978Z,100155.34
2022-10-23T23:17:31.754Z,100157.44
2022-10-23T23:20:10.235Z,100159.31
2022-10-23T23:22:46.137Z,100159.31
2022-10-23T23:25:18.866Z,100155.81
2022-10-23T23:27:51.428Z,100157.44
2022-10-23T23:30:25.217Z,100153.03
2022-10-23T23:32:57.674Z,100156.09
2022-10-23T23:35:30.203Z,100156.91
2022-10-23T23:38:02.774Z,100155.31
2022-10-23T23:40:35.419Z,100151.06
2022-10-23T23:43:07.920Z,100160.09
2022-10-23T23:45:40.467Z,100153.84
2022-10-23T23:48:13.007Z,100162.28
2022-10-23T23:50:45.593Z,100158.44
2022-10-23T23:53:18.366Z,100159.53
2022-10-23T23:55:51.050Z,100146.94
2022-10-23T23:58:23.760Z,100148.84
